Terminal Aerodrome Forecast
Issued by NWS Detroit/Pontiac, MI

Home | Current Version | Previous Version | Text Only | Print | Product List | Glossary On
Versions: 1 2 3 4 5 6 7 8 9 10 11 12 13 14 15 16 17 18 19 20 21 22 23 24 25 26 27 28 29 30 31 32 33 34 35 36 37 38 39
747
FTUS43 KDTX 251720
TAFDTW
TAF
KDTW 251720Z 2518/2624 24020G30KT P6SM BKN035
     FM251930 24016G26KT P6SM SCT035
     FM252300 25011KT P6SM SKC
     FM260800 24005KT P6SM SKC
     FM261600 27011KT P6SM SKC=

USA.gov is the U.S. government's official web portal to all federal, state and local government web resources and services.